Terminal Aerodrome Forecast
Issued by NWS Grand Forks, ND

Home | Current Version | Previous Version | Graphics & Text | Print | Product List | Glossary On
Versions: 1 2 3 4 5 6 7 8 9 10 11 12 13 14 15
000
FTUS43 KFGF 210500
TAFGFK
TAF
KGFK 210520Z 2106/2206 VRB06KT P6SM SCT080 SCT250
      TEMPO 2110/2112 BKN080
     FM211400 09008KT P6SM BKN060
     FM212100 12010KT P6SM BKN080=

USA.gov is the U.S. government's official web portal to all federal, state and local government web resources and services.